Time;durP1;ratioP1;P1;durP2;ratioP2;P2;SDS_P1;SDS_P2;PMS_P1;PMS_P2;Temp;Humidity;BMP_temperature;BMP_pressure;BME280_temperature;BME280_humidity;BME280_pressure;Samples;Min_cycle;Max_cycle;Signal;HPM_P1;HPM_P2
2023/08/08 00:01:44;;;;;;;3.78;1.50;;;;;;;21.29;50.96;101424.25;4998458;28;20100;-70
2023/08/08 00:04:10;;;;;;;2.78;1.20;;;;;;;21.26;51.17;101414.75;4999659;28;20502;-70
2023/08/08 00:06:36;;;;;;;4.32;1.60;;;;;;;21.29;51.04;101413.66;5000726;28;21213;-75
2023/08/08 00:09:03;;;;;;;3.63;1.30;;;;;;;21.27;51.13;101416.44;5000809;28;20044;-72
2023/08/08 00:11:29;;;;;;;2.80;1.30;;;;;;;21.27;51.36;101419.09;4999569;28;20151;-76
2023/08/08 00:13:55;;;;;;;3.28;1.10;;;;;;;21.27;50.89;101418.22;5001548;28;20034;-75
2023/08/08 00:16:20;;;;;;;3.55;1.45;;;;;;;21.26;51.28;101416.56;5004066;28;20038;-69
2023/08/08 00:18:45;;;;;;;4.18;1.50;;;;;;;21.25;51.06;101414.88;5003653;28;20025;-74
2023/08/08 00:21:11;;;;;;;4.05;1.40;;;;;;;21.26;51.07;101421.88;5003953;28;20034;-70
2023/08/08 00:23:39;;;;;;;3.13;1.27;;;;;;;21.25;50.95;101417.53;5004011;28;20647;-76
2023/08/08 00:26:04;;;;;;;3.45;1.40;;;;;;;21.26;51.17;101417.41;5003851;28;20042;-70
2023/08/08 00:28:29;;;;;;;3.75;1.40;;;;;;;21.24;51.27;101419.34;5004350;28;20034;-70
2023/08/08 00:30:55;;;;;;;3.13;1.48;;;;;;;21.24;51.21;101424.66;5002382;28;20150;-70
2023/08/08 00:33:21;;;;;;;4.22;1.50;;;;;;;21.25;51.21;101425.47;5003576;28;20033;-71
2023/08/08 00:35:46;;;;;;;4.07;1.60;;;;;;;21.24;50.79;101414.03;5003830;28;20498;-70
2023/08/08 00:38:11;;;;;;;3.30;1.40;;;;;;;21.23;51.10;101417.66;5003977;28;20117;-71
2023/08/08 00:40:37;;;;;;;2.97;1.33;;;;;;;21.23;51.36;101408.88;5003074;28;20479;-71
2023/08/08 00:43:02;;;;;;;4.57;1.60;;;;;;;21.23;51.17;101404.41;5003477;28;20072;-70
2023/08/08 00:45:28;;;;;;;4.70;1.67;;;;;;;21.23;51.32;101400.91;5004070;28;20073;-69
2023/08/08 00:47:53;;;;;;;8.10;1.50;;;;;;;21.23;51.16;101398.28;5001004;28;20096;-70
2023/08/08 00:50:19;;;;;;;3.65;1.40;;;;;;;21.22;51.09;101402.75;5003892;28;20468;-73
2023/08/08 00:52:44;;;;;;;3.88;1.73;;;;;;;21.22;51.32;101402.75;5002910;28;20068;-75
2023/08/08 00:55:10;;;;;;;5.00;1.55;;;;;;;21.21;50.89;101398.41;5003808;28;20401;-75
2023/08/08 00:57:38;;;;;;;3.42;1.38;;;;;;;21.20;51.24;101402.88;5003556;28;20037;-72
2023/08/08 01:00:10;;;;;;;4.35;1.52;;;;;;;21.20;51.24;101392.28;5002748;28;20084;-73
2023/08/08 01:02:36;;;;;;;3.97;2.05;;;;;;;21.22;51.15;101397.44;5003270;28;20128;-74
2023/08/08 01:05:04;;;;;;;4.40;1.50;;;;;;;21.21;51.38;101398.41;5003215;28;20045;-76
2023/08/08 01:07:38;;;;;;;4.60;1.42;;;;;;;21.21;51.06;101401.06;5000788;28;20076;-74
2023/08/08 01:10:09;;;;;;;4.68;1.60;;;;;;;21.19;50.93;101408.31;5002915;28;20037;-70
2023/08/08 01:12:42;;;;;;;3.53;1.35;;;;;;;21.18;51.04;101407.44;5003285;28;20105;-71
2023/08/08 01:15:08;;;;;;;3.97;1.50;;;;;;;21.19;51.04;101403.00;5002502;28;20038;-69
2023/08/08 01:17:35;;;;;;;3.22;1.30;;;;;;;21.19;51.31;101405.66;5003320;28;20034;-70
2023/08/08 01:20:04;;;;;;;3.72;1.42;;;;;;;21.17;51.31;101395.19;5002906;28;20057;-73
2023/08/08 01:22:37;;;;;;;3.33;1.55;;;;;;;21.17;50.93;101389.88;5002352;28;20038;-70
2023/08/08 01:25:04;;;;;;;4.00;1.33;;;;;;;21.18;51.33;101388.88;5000792;28;20061;-70
2023/08/08 01:27:30;;;;;;;3.60;1.40;;;;;;;21.18;50.99;101388.06;5002748;28;20107;-71
2023/08/08 01:29:55;;;;;;;3.95;1.42;;;;;;;21.19;51.07;101392.41;5002003;28;20494;-71
2023/08/08 01:32:20;;;;;;;3.55;1.60;;;;;;;21.17;50.79;101397.84;5003107;28;20033;-71
2023/08/08 01:34:46;;;;;;;2.88;1.50;;;;;;;21.18;51.43;101401.31;5001958;28;20034;-75
2023/08/08 01:37:22;;;;;;;2.60;1.27;;;;;;;21.14;51.16;101398.09;5002905;28;20087;-74
2023/08/08 01:39:48;;;;;;;3.80;1.42;;;;;;;21.16;51.32;101395.31;5002782;28;20061;-69
2023/08/08 01:42:15;;;;;;;3.75;1.48;;;;;;;21.17;51.19;101399.63;5001964;28;20076;-70
2023/08/08 01:44:44;;;;;;;3.53;1.52;;;;;;;21.15;51.21;101389.16;5002611;28;20861;-73
2023/08/08 01:47:09;;;;;;;4.03;1.67;;;;;;;21.15;51.16;101386.50;5002743;28;20118;-70
2023/08/08 01:49:35;;;;;;;4.55;1.65;;;;;;;21.16;51.09;101385.53;5001937;28;20476;-69
2023/08/08 01:52:00;;;;;;;3.88;1.42;;;;;;;21.16;51.17;101379.41;5002174;28;21295;-70
2023/08/08 01:54:25;;;;;;;4.40;1.70;;;;;;;21.15;51.24;101386.50;5002665;28;20029;-68
2023/08/08 01:56:51;;;;;;;4.13;1.38;;;;;;;21.14;51.37;101379.53;5001708;28;20038;-70
2023/08/08 01:59:16;;;;;;;2.47;1.20;;;;;;;21.14;51.53;101374.25;5002171;28;20089;-74
2023/08/08 02:01:41;;;;;;;3.58;1.60;;;;;;;21.16;51.00;101382.06;5017220;28;20025;-69
2023/08/08 02:04:06;;;;;;;4.10;1.55;;;;;;;21.14;51.28;101374.25;5001369;28;20590;-74
2023/08/08 02:06:32;;;;;;;4.80;1.75;;;;;;;21.14;50.92;101368.94;5002291;28;20457;-69
2023/08/08 02:08:58;;;;;;;4.30;1.40;;;;;;;21.14;51.24;101365.44;5017342;28;20038;-72
2023/08/08 02:11:23;;;;;;;3.88;1.60;;;;;;;21.15;51.16;101370.59;5000055;28;20483;-70
2023/08/08 02:13:48;;;;;;;3.78;1.48;;;;;;;21.13;51.24;101364.59;5002142;28;20037;-70
2023/08/08 02:16:14;;;;;;;3.65;1.52;;;;;;;21.13;51.45;101367.25;5002223;28;20604;-70
2023/08/08 02:18:40;;;;;;;3.38;1.45;;;;;;;21.14;51.09;101374.25;5001360;28;20105;-69
2023/08/08 02:21:07;;;;;;;3.25;1.50;;;;;;;21.14;51.10;101362.78;5001533;28;20030;-75
2023/08/08 02:23:34;;;;;;;3.72;1.48;;;;;;;21.13;51.52;101366.41;5002050;28;20140;-70
2023/08/08 02:25:59;;;;;;;5.28;1.80;;;;;;;21.13;51.07;101367.25;5000512;28;20550;-69
2023/08/08 02:28:25;;;;;;;4.60;1.90;;;;;;;21.13;51.07;101363.78;5002308;28;20030;-69
2023/08/08 02:30:50;;;;;;;3.80;1.90;;;;;;;21.13;51.37;101366.41;5001430;28;20065;-74
2023/08/08 02:33:15;;;;;;;3.60;1.70;;;;;;;21.12;50.88;101352.31;5001379;28;20030;-68
2023/08/08 02:35:41;;;;;;;4.47;1.70;;;;;;;21.12;51.38;101354.97;4999919;28;20087;-71
2023/08/08 02:38:06;;;;;;;5.57;1.58;;;;;;;21.12;51.31;101348.81;5001558;28;20117;-76
2023/08/08 02:40:33;;;;;;;3.85;1.30;;;;;;;21.12;50.97;101351.47;5001891;28;20034;-71
2023/08/08 02:42:59;;;;;;;4.30;1.83;;;;;;;21.11;51.26;101347.13;5001448;28;20103;-70
2023/08/08 02:45:24;;;;;;;4.32;1.42;;;;;;;21.11;50.96;101344.50;5000438;28;20808;-68
2023/08/08 02:47:49;;;;;;;4.65;1.75;;;;;;;21.12;51.08;101343.53;5001047;28;20084;-70
2023/08/08 02:50:15;;;;;;;4.80;1.92;;;;;;;21.11;51.44;101331.25;5001770;28;20037;-68
2023/08/08 02:52:40;;;;;;;5.50;1.65;;;;;;;21.10;51.59;101341.00;5000526;28;20454;-70
2023/08/08 02:55:06;;;;;;;4.78;1.40;;;;;;;21.10;51.13;101340.19;5000150;28;20517;-74
2023/08/08 02:57:32;;;;;;;3.83;1.58;;;;;;;21.10;51.48;101332.22;5001492;28;20034;-70
2023/08/08 02:59:57;;;;;;;4.03;1.40;;;;;;;21.09;51.47;101331.38;5000494;28;20034;-72
2023/08/08 03:02:22;;;;;;;5.43;1.90;;;;;;;21.09;51.18;101334.03;4999607;28;20054;-69
2023/08/08 03:04:48;;;;;;;4.60;1.98;;;;;;;21.09;51.35;101333.19;5000989;28;20052;-71
2023/08/08 03:07:13;;;;;;;4.72;1.50;;;;;;;21.09;51.26;101334.03;5000803;28;20025;-69
2023/08/08 03:09:38;;;;;;;4.47;1.50;;;;;;;21.09;51.46;101341.97;5001361;28;20465;-71
2023/08/08 03:12:04;;;;;;;4.55;1.65;;;;;;;21.09;51.54;101338.50;5016034;28;20030;-69
2023/08/08 03:14:29;;;;;;;4.22;1.55;;;;;;;21.08;51.61;101332.34;5000808;28;20034;-74
2023/08/08 03:16:55;;;;;;;4.15;1.83;;;;;;;21.09;51.37;101338.50;5000456;28;20048;-71
2023/08/08 03:19:20;;;;;;;5.47;1.98;;;;;;;21.07;51.45;101337.78;5001058;28;20036;-74
2023/08/08 03:21:46;;;;;;;4.75;1.70;;;;;;;21.08;51.46;101337.66;4999511;28;20112;-69
2023/08/08 03:24:11;;;;;;;5.10;1.90;;;;;;;21.07;51.59;101332.50;4999277;28;20030;-73
2023/08/08 03:26:36;;;;;;;8.95;1.90;;;;;;;21.07;51.50;101329.84;5000574;28;20321;-75
2023/08/08 03:29:01;;;;;;;4.75;1.77;;;;;;;21.06;51.60;101321.06;4999142;28;20038;-73
2023/08/08 03:31:27;;;;;;;5.65;1.60;;;;;;;21.07;51.50;101325.38;5001143;28;20037;-70
2023/08/08 03:33:52;;;;;;;5.50;1.50;;;;;;;21.07;51.25;101324.53;5000802;28;20857;-70
2023/08/08 03:36:18;;;;;;;4.55;1.70;;;;;;;21.05;51.60;101329.97;5000182;28;20054;-70
2023/08/08 03:38:46;;;;;;;4.35;1.58;;;;;;;21.06;51.67;101331.66;5000699;28;20034;-70
2023/08/08 03:41:13;;;;;;;5.03;1.90;;;;;;;21.07;51.90;101332.50;5000788;28;20033;-69
2023/08/08 03:43:39;;;;;;;6.53;1.83;;;;;;;21.04;51.55;101328.28;4999775;28;20034;-70
2023/08/08 03:46:04;;;;;;;4.35;1.60;;;;;;;21.04;51.76;101328.28;5000483;28;20164;-70
2023/08/08 03:48:30;;;;;;;4.43;1.85;;;;;;;21.04;51.65;101324.81;5001584;28;20117;-69
2023/08/08 03:50:55;;;;;;;3.95;1.60;;;;;;;21.04;51.67;101332.75;5006279;28;20443;-70
2023/08/08 03:53:20;;;;;;;3.70;1.50;;;;;;;21.05;51.63;101327.31;5007439;28;20076;-69
2023/08/08 03:55:45;;;;;;;5.18;1.92;;;;;;;21.05;51.45;101321.19;5005889;28;20126;-70
2023/08/08 03:58:11;;;;;;;3.30;1.52;;;;;;;21.05;51.60;101324.69;5007377;28;20030;-69
2023/08/08 04:00:39;;;;;;;5.90;2.03;;;;;;;21.04;51.43;101320.34;5006694;28;20413;-75
2023/08/08 04:03:05;;;;;;;6.60;2.00;;;;;;;21.04;51.63;101322.16;5006239;28;20498;-70
2023/08/08 04:05:30;;;;;;;4.72;1.77;;;;;;;21.04;51.65;101316.84;5007570;28;20032;-73
2023/08/08 04:07:55;;;;;;;4.75;1.90;;;;;;;21.04;51.51;101317.69;5007222;28;20825;-70
2023/08/08 04:10:20;;;;;;;4.68;1.92;;;;;;;21.04;51.72;101317.69;5006877;28;20105;-70
2023/08/08 04:12:46;;;;;;;3.92;1.67;;;;;;;21.04;51.67;101315.03;5006730;28;20036;-70
2023/08/08 04:15:11;;;;;;;6.25;1.90;;;;;;;21.03;51.45;101318.69;5022166;28;20030;-68
2023/08/08 04:17:36;;;;;;;4.32;1.40;;;;;;;21.03;51.69;101318.69;5005821;28;20388;-74
2023/08/08 04:20:03;;;;;;;4.95;1.63;;;;;;;21.03;51.43;101321.31;5006941;28;20069;-71
2023/08/08 04:22:28;;;;;;;5.72;1.73;;;;;;;21.00;51.32;101313.63;5007006;28;20065;-71
2023/08/08 04:24:53;;;;;;;5.60;1.70;;;;;;;21.04;51.67;101322.16;5006087;28;20105;-70
2023/08/08 04:27:19;;;;;;;4.30;1.70;;;;;;;21.00;51.57;101313.63;5021518;28;20029;-70
2023/08/08 04:29:44;;;;;;;4.38;1.73;;;;;;;21.02;51.75;101319.63;5007495;28;20037;-70
2023/08/08 04:32:09;;;;;;;6.00;1.80;;;;;;;21.01;51.59;101315.31;5006389;28;20038;-70
2023/08/08 04:34:34;;;;;;;4.55;1.90;;;;;;;21.01;51.32;101317.94;5019418;28;20046;-69
2023/08/08 04:37:00;;;;;;;6.75;2.20;;;;;;;21.01;51.69;101315.31;5007090;28;20503;-71
2023/08/08 04:39:25;;;;;;;4.57;1.63;;;;;;;21.00;51.79;101319.78;5006670;28;20045;-70
2023/08/08 04:41:50;;;;;;;5.47;1.85;;;;;;;21.01;51.60;101321.47;5007256;28;20029;-70
2023/08/08 04:44:16;;;;;;;3.50;1.52;;;;;;;21.00;51.60;101324.25;5006403;28;20034;-75
2023/08/08 04:46:41;;;;;;;6.03;1.70;;;;;;;20.99;51.39;101326.03;5005662;28;20029;-69
2023/08/08 04:49:06;;;;;;;6.20;2.22;;;;;;;21.00;51.58;101321.59;5007479;28;20029;-74
2023/08/08 04:51:31;;;;;;;5.18;1.70;;;;;;;20.99;51.38;101322.53;5007401;28;20506;-70
2023/08/08 04:53:57;;;;;;;6.00;1.80;;;;;;;20.99;51.66;101322.53;5006518;28;20030;-75
2023/08/08 04:56:22;;;;;;;4.18;1.75;;;;;;;20.99;51.78;101333.16;5006856;28;20076;-70
2023/08/08 04:58:47;;;;;;;6.30;1.90;;;;;;;20.99;51.48;101322.53;5005737;28;20256;-75
2023/08/08 05:01:14;;;;;;;5.65;1.70;;;;;;;20.98;51.53;101321.72;5017663;28;20534;-70
2023/08/08 05:03:40;;;;;;;5.28;1.55;;;;;;;20.99;51.62;101322.53;5002870;28;20394;-75
2023/08/08 05:06:05;;;;;;;4.93;1.80;;;;;;;20.97;51.60;101325.31;5002939;28;20041;-70
2023/08/08 05:08:31;;;;;;;4.47;1.60;;;;;;;20.97;51.47;101317.38;5003926;28;20565;-72
2023/08/08 05:10:56;;;;;;;5.00;1.85;;;;;;;20.96;51.38;101326.28;5002984;28;20034;-70
2023/08/08 05:13:21;;;;;;;4.57;1.55;;;;;;;20.97;51.67;101319.19;5002706;28;20207;-73
2023/08/08 05:15:46;;;;;;;4.82;1.60;;;;;;;20.95;51.54;101321.97;5002959;28;20399;-70
2023/08/08 05:18:12;;;;;;;5.30;2.10;;;;;;;20.95;51.74;101316.69;5003082;28;20127;-71
2023/08/08 05:20:37;;;;;;;4.15;2.00;;;;;;;20.97;51.49;101327.16;5001553;28;20501;-70
2023/08/08 05:23:03;;;;;;;4.65;1.98;;;;;;;20.95;51.60;101315.81;5002923;28;20037;-71
2023/08/08 05:25:28;;;;;;;4.78;1.73;;;;;;;20.96;51.54;101314.88;5002833;28;20121;-70
2023/08/08 05:27:54;;;;;;;5.32;1.90;;;;;;;20.96;51.82;101317.50;5002031;28;20041;-71
2023/08/08 05:30:19;;;;;;;3.40;1.35;;;;;;;20.94;51.78;101315.00;5003207;28;20137;-69
2023/08/08 05:32:44;;;;;;;6.32;2.20;;;;;;;20.94;51.96;101317.63;5002412;28;20059;-74
2023/08/08 05:35:10;;;;;;;5.18;1.70;;;;;;;20.95;51.74;101327.28;5002593;28;20548;-69
2023/08/08 05:37:35;;;;;;;5.93;1.88;;;;;;;20.95;51.97;101326.41;5011043;28;20472;-75
2023/08/08 05:40:00;;;;;;;4.38;1.80;;;;;;;20.93;51.75;101326.56;5014151;28;20034;-69
2023/08/08 05:42:26;;;;;;;5.13;1.63;;;;;;;20.95;51.88;101329.06;5001816;28;20045;-69
2023/08/08 05:44:51;;;;;;;6.82;2.00;;;;;;;20.95;51.78;101329.06;5002529;28;20087;-69
2023/08/08 05:47:16;;;;;;;5.57;2.20;;;;;;;20.95;51.74;101329.06;5017192;28;20034;-69
2023/08/08 05:49:42;;;;;;;4.25;1.73;;;;;;;20.94;51.97;101328.25;5002225;28;20390;-68
2023/08/08 05:52:08;;;;;;;4.85;2.00;;;;;;;20.94;51.61;101325.59;5002471;28;20041;-68
2023/08/08 05:54:33;;;;;;;5.85;1.83;;;;;;;20.94;51.92;101327.41;5001923;28;20042;-69
2023/08/08 05:56:58;;;;;;;4.70;1.75;;;;;;;20.94;52.09;101330.88;5001607;28;20061;-71
2023/08/08 05:59:24;;;;;;;4.88;1.80;;;;;;;20.96;52.08;101325.47;5002757;28;20037;-69
2023/08/08 06:01:49;;;;;;;6.20;1.90;;;;;;;20.95;51.96;101331.72;5001959;28;20065;-70
2023/08/08 06:04:15;;;;;;;3.80;1.92;;;;;;;20.95;52.23;101326.41;4999996;28;20050;-70
2023/08/08 06:06:41;;;;;;;6.88;2.60;;;;;;;20.95;52.07;101331.72;5002110;28;20556;-69
2023/08/08 06:09:08;;;;;;;4.90;1.90;;;;;;;20.94;52.02;101330.88;5000850;28;20034;-74
2023/08/08 06:11:34;;;;;;;5.82;2.03;;;;;;;20.94;52.28;101333.53;5002095;28;20113;-69
2023/08/08 06:13:59;;;;;;;4.65;1.73;;;;;;;20.96;52.14;101330.75;5001782;28;20120;-69
2023/08/08 06:16:25;;;;;;;6.25;1.83;;;;;;;20.95;52.20;101335.22;5016488;28;20876;-70
2023/08/08 06:18:51;;;;;;;5.85;2.08;;;;;;;20.95;52.28;101335.22;5001365;28;20552;-70
2023/08/08 06:21:17;;;;;;;5.53;1.95;;;;;;;20.95;52.37;101335.22;5002078;28;20630;-72
2023/08/08 06:23:42;;;;;;;5.95;2.03;;;;;;;20.93;52.16;101336.31;5000583;28;20036;-74
2023/08/08 06:26:08;;;;;;;4.70;2.10;;;;;;;20.95;52.50;101337.88;5002160;28;20050;-76
2023/08/08 06:28:33;;;;;;;7.30;2.30;;;;;;;20.97;52.37;101343.03;5002111;28;20029;-70
2023/08/08 06:30:59;;;;;;;4.47;1.77;;;;;;;20.96;52.34;101341.34;5000803;28;20030;-72
2023/08/08 06:33:24;;;;;;;5.80;1.90;;;;;;;20.97;52.61;101345.69;5001565;28;20041;-72
2023/08/08 06:35:49;;;;;;;6.20;2.25;;;;;;;20.97;52.51;101340.41;5002064;28;20036;-72
2023/08/08 06:38:15;;;;;;;5.00;1.70;;;;;;;20.96;52.61;101344.84;5001323;28;20030;-71
2023/08/08 06:40:40;;;;;;;5.20;1.70;;;;;;;20.95;52.66;101339.66;5001735;28;20482;-75
2023/08/08 06:43:06;;;;;;;4.40;1.77;;;;;;;20.96;52.44;101342.19;5000508;28;20038;-70
2023/08/08 06:45:31;;;;;;;5.05;1.92;;;;;;;20.94;52.76;101336.19;5001129;28;20033;-73
2023/08/08 06:47:57;;;;;;;5.50;1.80;;;;;;;20.97;52.72;101340.41;5001177;28;20025;-70
2023/08/08 06:50:24;;;;;;;4.63;1.60;;;;;;;20.97;53.03;101337.75;5000142;28;20030;-70
2023/08/08 06:52:50;;;;;;;5.13;1.90;;;;;;;20.95;52.68;101332.56;5000678;28;20479;-70
2023/08/08 06:55:15;;;;;;;6.05;1.98;;;;;;;20.95;53.19;101344.97;5001831;28;20091;-73
2023/08/08 06:57:41;;;;;;;5.10;2.08;;;;;;;20.95;53.05;101339.66;5001256;28;20479;-74
2023/08/08 07:00:08;;;;;;;5.93;2.00;;;;;;;20.95;53.04;101348.47;5000765;28;20121;-71
2023/08/08 07:02:34;;;;;;;5.10;2.00;;;;;;;20.98;53.13;101348.22;5000776;28;20099;-68
2023/08/08 07:04:59;;;;;;;5.72;2.00;;;;;;;20.97;53.10;101346.53;4999979;28;20030;-72
2023/08/08 07:07:25;;;;;;;5.47;1.85;;;;;;;21.00;53.16;101342.78;5000665;28;20033;-73
2023/08/08 07:09:50;;;;;;;6.95;1.88;;;;;;;20.99;53.63;101344.56;5001480;28;20537;-74
2023/08/08 07:12:16;;;;;;;8.02;2.08;;;;;;;21.00;53.54;101340.97;5000663;28;20095;-72
2023/08/08 07:14:41;;;;;;;6.55;2.20;;;;;;;20.99;53.51;101343.75;5000559;28;20077;-72
2023/08/08 07:17:06;;;;;;;5.40;1.90;;;;;;;20.97;53.77;101340.41;5000858;28;20044;-71
2023/08/08 07:19:32;;;;;;;5.50;1.90;;;;;;;20.99;53.70;101344.56;5000927;28;20026;-71
2023/08/08 07:21:57;;;;;;;6.97;2.30;;;;;;;21.03;53.57;101347.81;5000521;28;20038;-76
2023/08/08 07:24:26;;;;;;;4.72;1.80;;;;;;;21.05;53.82;101342.41;5000781;28;20029;-70
2023/08/08 07:26:52;;;;;;;6.05;2.00;;;;;;;21.04;53.75;101341.53;5000144;28;20034;-74
2023/08/08 07:29:17;;;;;;;4.15;1.67;;;;;;;21.05;53.55;101342.41;5001000;28;20188;-72
2023/08/08 07:31:42;;;;;;;5.45;2.00;;;;;;;21.03;53.74;101339.88;5000511;28;21221;-71
2023/08/08 07:34:08;;;;;;;5.13;1.70;;;;;;;21.05;53.87;101340.56;5000815;28;20042;-70
2023/08/08 07:36:33;;;;;;;7.20;2.13;;;;;;;21.08;53.97;101336.81;5001213;28;20037;-71
2023/08/08 07:38:59;;;;;;;6.07;2.15;;;;;;;21.08;53.80;101344.75;5015660;28;20038;-72
2023/08/08 07:41:26;;;;;;;4.97;1.83;;;;;;;21.08;53.50;101337.66;5002489;28;20499;-71
2023/08/08 07:43:52;;;;;;;7.38;1.98;;;;;;;21.08;53.76;101342.09;5002037;28;20061;-70
2023/08/08 07:46:18;;;;;;;7.60;1.88;;;;;;;21.06;53.64;101336.97;5001595;28;20080;-69
2023/08/08 07:48:43;;;;;;;5.57;2.00;;;;;;;21.07;53.94;101340.44;5000918;28;20029;-75
2023/08/08 07:51:08;;;;;;;6.38;1.98;;;;;;;21.05;53.53;101337.09;5001223;28;20432;-70
2023/08/08 07:53:33;;;;;;;5.45;1.70;;;;;;;21.06;53.97;101344.06;5001280;28;20034;-72
2023/08/08 07:55:59;;;;;;;6.55;1.88;;;;;;;21.07;54.14;101341.28;4999766;28;20029;-76
2023/08/08 07:58:26;;;;;;;4.97;1.88;;;;;;;21.10;53.83;101340.19;5000984;28;20438;-71
2023/08/08 08:00:53;;;;;;;7.65;2.17;;;;;;;21.08;54.07;101342.09;5000999;28;20470;-68
2023/08/08 08:03:19;;;;;;;5.00;1.80;;;;;;;21.08;54.09;101344.75;4999936;28;20057;-70
2023/08/08 08:05:45;;;;;;;3.92;1.88;;;;;;;21.07;54.07;101348.41;5000235;28;20074;-70
2023/08/08 08:08:10;;;;;;;5.20;1.70;;;;;;;21.02;54.43;101344.31;5000812;28;20465;-70
2023/08/08 08:10:35;;;;;;;4.70;1.80;;;;;;;21.02;54.09;101346.97;5000168;28;20069;-69
2023/08/08 08:13:01;;;;;;;5.75;1.85;;;;;;;21.01;54.59;101345.31;5000312;28;20032;-71
2023/08/08 08:15:26;;;;;;;4.82;1.77;;;;;;;21.02;54.30;101341.66;5000861;28;20034;-70
2023/08/08 08:17:52;;;;;;;4.43;1.75;;;;;;;21.07;54.38;101338.63;4998741;28;20056;-70
2023/08/08 08:20:17;;;;;;;5.55;1.80;;;;;;;21.10;54.29;101340.19;5001018;28;20584;-69
2023/08/08 08:22:43;;;;;;;7.07;1.90;;;;;;;21.07;54.40;101338.63;4999892;28;20061;-73
2023/08/08 08:25:09;;;;;;;8.55;1.83;;;;;;;21.11;54.24;101349.78;5000625;28;20076;-74
2023/08/08 08:27:37;;;;;;;5.05;1.67;;;;;;;21.10;54.56;101348.97;4997350;28;20057;-71
2023/08/08 08:30:05;;;;;;;12.23;1.83;;;;;;;21.08;54.68;101347.41;4998256;28;20174;-75
2023/08/08 08:32:34;;;;;;;6.00;1.83;;;;;;;21.05;55.04;101337.91;4999138;28;20033;-72
2023/08/08 08:35:03;;;;;;;7.03;2.10;;;;;;;21.07;54.64;101345.75;5000021;28;20661;-71
2023/08/08 08:37:30;;;;;;;7.75;2.25;;;;;;;21.05;54.55;101342.41;5002138;28;20487;-71
2023/08/08 08:39:55;;;;;;;6.50;2.00;;;;;;;21.05;54.19;101340.56;5003466;28;20030;-69
2023/08/08 08:42:21;;;;;;;5.65;1.50;;;;;;;21.04;54.77;101346.84;5002999;28;20128;-75
2023/08/08 08:44:47;;;;;;;6.80;2.00;;;;;;;21.02;54.82;101343.47;5002378;28;20558;-74
2023/08/08 08:47:17;;;;;;;8.98;2.60;;;;;;;21.00;55.19;101343.63;5001844;28;20029;-74
2023/08/08 08:49:45;;;;;;;5.13;1.67;;;;;;;21.00;54.67;101348.09;5003189;28;20466;-73
2023/08/08 08:52:12;;;;;;;6.85;1.90;;;;;;;21.00;54.87;101345.44;5000960;28;20038;-81
2023/08/08 08:54:38;;;;;;;5.53;2.10;;;;;;;20.95;54.89;101337.00;5001784;28;20046;-78
2023/08/08 08:57:04;;;;;;;5.80;1.95;;;;;;;20.98;54.83;101345.56;5003583;28;20113;-77
2023/08/08 08:59:29;;;;;;;7.28;1.83;;;;;;;20.99;54.75;101339.28;5003978;28;20107;-74
2023/08/08 09:01:56;;;;;;;3.90;1.65;;;;;;;20.99;54.60;101349.03;5003676;28;20033;-79
2023/08/08 09:04:22;;;;;;;4.97;1.45;;;;;;;20.95;54.68;101358.22;5002979;28;20053;-69
2023/08/08 09:06:49;;;;;;;4.90;1.63;;;;;;;20.91;54.89;101357.63;5000686;28;20034;-69
2023/08/08 09:09:15;;;;;;;5.82;1.70;;;;;;;20.90;54.22;101355.94;5002894;28;20109;-68
2023/08/08 09:11:44;;;;;;;7.65;1.85;;;;;;;20.88;54.07;101357.91;5003226;28;20034;-73
2023/08/08 09:14:24;;;;;;;6.30;1.42;;;;;;;20.88;54.58;101360.56;4982623;28;20132;-72
2023/08/08 09:16:52;;;;;;;5.13;1.80;;;;;;;20.89;54.40;101353.47;5001936;28;20049;-74
2023/08/08 09:19:19;;;;;;;5.82;1.77;;;;;;;20.89;54.78;101356.13;5001290;28;20034;-72
2023/08/08 09:21:45;;;;;;;7.68;1.45;;;;;;;20.88;54.99;101357.06;5001695;28;20486;-78
2023/08/08 09:24:10;;;;;;;5.03;1.70;;;;;;;20.90;55.00;101358.59;5003167;28;20069;-79
2023/08/08 09:26:36;;;;;;;5.47;1.65;;;;;;;20.93;54.51;101358.34;5001508;28;20063;-73
2023/08/08 09:29:03;;;;;;;8.15;1.70;;;;;;;20.93;54.69;101354.88;5003605;28;20037;-73
2023/08/08 09:31:29;;;;;;;5.80;1.70;;;;;;;20.95;54.49;101348.47;5003281;28;20413;-73
2023/08/08 09:33:58;;;;;;;4.90;1.65;;;;;;;20.94;54.67;101354.72;5001024;28;20034;-71
2023/08/08 09:36:23;;;;;;;5.20;1.77;;;;;;;20.93;54.84;101358.34;5001375;28;20040;-68
2023/08/08 09:38:49;;;;;;;4.78;1.80;;;;;;;20.95;54.80;101366.16;5003800;28;20034;-69
2023/08/08 09:41:14;;;;;;;5.15;1.65;;;;;;;20.94;54.77;101353.91;5004722;28;20034;-69
2023/08/08 09:43:44;;;;;;;4.15;1.70;;;;;;;20.95;54.90;101360.88;5003029;28;20029;-72
2023/08/08 09:46:09;;;;;;;5.43;1.88;;;;;;;20.99;54.64;101357.00;5002968;28;20049;-74
2023/08/08 09:48:39;;;;;;;6.53;2.03;;;;;;;21.03;54.12;101358.44;5002702;28;20029;-67
2023/08/08 09:51:04;;;;;;;5.85;1.77;;;;;;;21.03;54.53;101355.78;5001861;28;20041;-68
2023/08/08 09:53:30;;;;;;;4.40;1.50;;;;;;;21.02;54.48;101359.38;5016826;28;20034;-72
2023/08/08 09:55:56;;;;;;;5.20;1.80;;;;;;;21.01;54.69;101355.91;5002918;28;20479;-72
2023/08/08 09:58:22;;;;;;;7.22;2.00;;;;;;;21.05;54.80;101360.94;5001319;28;20041;-71
2023/08/08 10:00:50;;;;;;;4.43;1.60;;;;;;;21.05;54.61;101353.00;5001541;28;20091;-73
2023/08/08 10:03:16;;;;;;;5.35;1.48;;;;;;;21.04;54.68;101352.13;5001068;28;20137;-68
2023/08/08 10:05:43;;;;;;;4.15;1.75;;;;;;;21.08;54.22;101352.69;5001534;28;20034;-73
2023/08/08 10:08:08;;;;;;;5.60;1.90;;;;;;;21.10;54.22;101358.72;4983924;28;20049;-70
2023/08/08 10:10:34;;;;;;;4.22;1.60;;;;;;;21.10;54.17;101353.44;5001437;28;20953;-70
2023/08/08 10:13:00;;;;;;;5.35;1.55;;;;;;;21.11;54.24;101358.59;5001772;28;20038;-70
2023/08/08 10:15:27;;;;;;;5.25;1.70;;;;;;;21.15;54.41;101356.50;5001442;28;20059;-73
2023/08/08 10:17:57;;;;;;;6.35;1.88;;;;;;;21.19;54.01;101347.34;5001654;28;20038;-70
2023/08/08 10:20:25;;;;;;;4.28;1.48;;;;;;;21.19;53.85;101350.00;5016380;28;20084;-73
2023/08/08 10:22:54;;;;;;;4.57;1.58;;;;;;;21.23;54.10;101346.09;4999100;28;20022;-68
2023/08/08 10:25:24;;;;;;;4.63;1.50;;;;;;;21.23;54.30;101346.09;5000313;28;20044;-70
2023/08/08 10:28:01;;;;;;;4.32;1.50;;;;;;;21.21;53.97;101340.09;5001074;28;20053;-70
2023/08/08 10:30:26;;;;;;;5.22;1.52;;;;;;;21.23;54.23;101346.09;5000629;28;20073;-71
2023/08/08 10:32:52;;;;;;;5.18;1.50;;;;;;;21.23;54.10;101356.69;5001540;28;20066;-70
2023/08/08 10:35:17;;;;;;;5.97;1.40;;;;;;;21.23;54.07;101353.22;5001275;28;20126;-74
2023/08/08 10:37:55;;;;;;;3.70;1.50;;;;;;;21.24;54.16;101357.50;5000104;28;20034;-70
2023/08/08 10:40:20;;;;;;;6.57;1.65;;;;;;;21.22;53.63;101359.47;5001377;28;20033;-70
2023/08/08 10:42:47;;;;;;;3.78;1.40;;;;;;;21.23;53.58;101356.69;5000783;28;20359;-73
2023/08/08 10:45:16;;;;;;;5.45;1.60;;;;;;;21.25;53.77;101354.72;5000979;28;20390;-71
2023/08/08 10:47:42;;;;;;;5.97;1.65;;;;;;;21.22;53.85;101362.97;4999725;28;20092;-73
2023/08/08 10:50:15;;;;;;;6.93;1.60;;;;;;;21.20;53.54;101372.84;5000869;28;20513;-69
2023/08/08 10:52:52;;;;;;;4.60;2.00;;;;;;;21.17;53.78;101370.47;5000481;28;20036;-69
2023/08/08 10:55:22;;;;;;;5.40;1.55;;;;;;;21.16;54.01;101363.50;5001045;28;20957;-74
2023/08/08 10:58:02;;;;;;;3.70;1.50;;;;;;;21.15;54.12;101367.94;4999870;28;20060;-70
2023/08/08 11:00:31;;;;;;;4.80;1.58;;;;;;;21.13;53.96;101354.00;5001319;28;20117;-70
2023/08/08 11:02:58;;;;;;;5.78;1.65;;;;;;;21.14;54.11;101346.88;5000496;28;20049;-69
2023/08/08 11:05:24;;;;;;;4.55;1.60;;;;;;;21.15;53.85;101354.69;3533127;28;10000562;-73
2023/08/08 11:07:50;;;;;;;6.50;1.55;;;;;;;21.17;54.32;101347.47;5001140;28;20036;-69
2023/08/08 11:10:16;;;;;;;4.65;1.40;;;;;;;21.15;54.17;101338.78;5000870;28;20049;-71
2023/08/08 11:12:41;;;;;;;5.30;1.50;;;;;;;21.15;54.18;101341.44;5000014;28;20026;-72
2023/08/08 11:15:07;;;;;;;5.72;1.70;;;;;;;21.19;54.07;101339.38;5001292;28;20033;-75
2023/08/08 11:17:33;;;;;;;3.42;1.38;;;;;;;21.18;54.17;101335.06;5000664;28;20131;-72
2023/08/08 11:19:58;;;;;;;3.60;1.52;;;;;;;21.18;53.78;101333.22;4999465;28;20111;-71